createdAt,value
2023-02-14T00:00:02.809Z,0
2023-02-14T00:01:03.658Z,0
2023-02-14T00:02:02.738Z,0
2023-02-14T00:03:03.000Z,0
2023-02-14T00:04:02.657Z,0
2023-02-14T00:05:03.083Z,0
2023-02-14T00:06:02.583Z,0
2023-02-14T00:07:02.553Z,0
2023-02-14T00:08:02.606Z,0
2023-02-14T00:09:02.475Z,0
2023-02-14T00:10:02.534Z,0
2023-02-14T00:11:03.248Z,0
2023-02-14T00:12:02.422Z,0
2023-02-14T00:13:02.347Z,0
2023-02-14T00:14:02.360Z,0
2023-02-14T00:15:02.452Z,0
2023-02-14T00:16:02.694Z,0
2023-02-14T00:17:02.198Z,0
2023-02-14T00:18:02.364Z,0
2023-02-14T00:19:02.164Z,0
2023-02-14T00:20:02.083Z,0
2023-02-14T00:21:02.928Z,0
2023-02-14T00:22:02.120Z,0
2023-02-14T00:23:02.055Z,0
2023-02-14T00:24:02.007Z,0
2023-02-14T00:25:01.918Z,0
2023-02-14T00:26:01.926Z,0
2023-02-14T00:27:01.846Z,0
2023-02-14T00:28:01.833Z,0
2023-02-14T00:29:01.785Z,0
2023-02-14T00:30:02.395Z,0
2023-02-14T00:31:03.105Z,0
2023-02-14T00:32:02.098Z,0
2023-02-14T00:33:01.644Z,0
2023-02-14T00:34:01.625Z,0
2023-02-14T00:35:01.611Z,0
2023-02-14T00:36:01.552Z,0
2023-02-14T00:37:01.525Z,0
2023-02-14T00:38:01.503Z,0
2023-02-14T00:39:01.442Z,0
2023-02-14T00:40:01.473Z,0
2023-02-14T00:41:02.222Z,0
2023-02-14T00:42:01.368Z,0
2023-02-14T00:43:01.072Z,0
2023-02-14T00:44:01.025Z,0
2023-02-14T00:45:01.246Z,0
2023-02-14T00:46:01.852Z,0
2023-02-14T00:47:01.186Z,0
2023-02-14T00:48:01.162Z,0
2023-02-14T00:49:01.131Z,0
2023-02-14T00:50:01.089Z,0
2023-02-14T00:51:01.844Z,0
2023-02-14T00:52:00.783Z,0
2023-02-14T00:53:00.960Z,0
2023-02-14T00:54:00.962Z,0
2023-02-14T00:55:00.664Z,0
2023-02-14T00:56:00.917Z,0
2023-02-14T00:57:00.903Z,0
2023-02-14T00:58:00.854Z,0
2023-02-14T00:59:00.775Z,0
2023-02-14T01:00:00.729Z,0
2023-02-14T01:01:01.839Z,0
2023-02-14T01:02:00.780Z,0
2023-02-14T01:03:00.999Z,0
2023-02-14T01:04:00.632Z,0
2023-02-14T01:05:00.552Z,0
2023-02-14T01:06:00.575Z,0
2023-02-14T01:07:00.488Z,0
2023-02-14T01:08:00.502Z,0
2023-02-14T01:09:00.426Z,0
2023-02-14T01:10:00.417Z,0
2023-02-14T01:11:01.101Z,0
2023-02-14T01:12:00.367Z,0
2023-02-14T01:13:00.278Z,0
2023-02-14T01:14:00.262Z,0
2023-02-14T01:15:00.202Z,0
2023-02-14T01:16:00.500Z,0
2023-02-14T01:17:00.504Z,0
2023-02-14T01:18:00.159Z,0
2023-02-14T01:19:00.098Z,0
2023-02-14T01:20:00.037Z,0
2023-02-14T01:21:00.809Z,0
2023-02-14T01:21:59.999Z,0
2023-02-14T01:22:59.923Z,0
2023-02-14T01:23:59.905Z,0
2023-02-14T01:24:59.856Z,0
2023-02-14T01:25:59.845Z,0
2023-02-14T01:26:59.787Z,0
2023-02-14T01:27:59.815Z,0
2023-02-14T01:28:59.710Z,0
2023-02-14T01:29:59.911Z,0
2023-02-14T01:31:00.896Z,0
2023-02-14T01:31:59.889Z,0
2023-02-14T01:32:59.596Z,0
2023-02-14T01:33:59.644Z,0
2023-02-14T01:34:59.554Z,0
2023-02-14T01:35:59.484Z,0
2023-02-14T01:36:59.501Z,0
2023-02-14T01:37:59.424Z,0
2023-02-14T01:38:59.411Z,0
2023-02-14T01:39:59.431Z,0
2023-02-14T01:40:59.981Z,0
2023-02-14T01:41:59.301Z,0
2023-02-14T01:42:59.244Z,0
2023-02-14T01:43:59.360Z,0
2023-02-14T01:44:59.178Z,0
2023-02-14T01:45:59.562Z,0
2023-02-14T01:46:59.106Z,0
2023-02-14T01:47:59.072Z,0
2023-02-14T01:48:59.044Z,0
2023-02-14T01:49:59.058Z,0
2023-02-14T01:50:59.084Z,0
2023-02-14T01:51:58.972Z,0
2023-02-14T01:52:58.904Z,0
2023-02-14T01:53:58.861Z,0
2023-02-14T01:54:58.844Z,0
2023-02-14T01:55:58.810Z,0
2023-02-14T01:56:58.808Z,0
2023-02-14T01:57:58.765Z,0
2023-02-14T01:58:58.696Z,0
2023-02-14T01:59:58.787Z,0
2023-02-14T02:00:59.504Z,0
2023-02-14T02:01:58.930Z,0
2023-02-14T02:02:58.600Z,0
2023-02-14T02:03:58.530Z,0
2023-02-14T02:04:58.539Z,0
2023-02-14T02:05:58.511Z,0
2023-02-14T02:06:58.437Z,0
2023-02-14T02:07:58.395Z,0
2023-02-14T02:08:58.350Z,0
2023-02-14T02:09:58.348Z,0
2023-02-14T02:10:58.638Z,0
2023-02-14T02:11:58.237Z,0
2023-02-14T02:12:57.973Z,0
2023-02-14T02:13:58.178Z,0
2023-02-14T02:14:58.154Z,0
2023-02-14T02:15:58.174Z,0
2023-02-14T02:16:58.378Z,0
2023-02-14T02:17:58.071Z,0
2023-02-14T02:18:57.996Z,0
2023-02-14T02:19:58.000Z,0
2023-02-14T02:20:58.282Z,0
2023-02-14T02:21:57.955Z,0
2023-02-14T02:22:57.876Z,0
2023-02-14T02:23:57.821Z,0
2023-02-14T02:24:57.786Z,0
2023-02-14T02:25:57.762Z,0
2023-02-14T02:26:57.734Z,0
2023-02-14T02:27:57.713Z,0
2023-02-14T02:28:57.660Z,0
2023-02-14T02:29:57.843Z,0
2023-02-14T02:30:58.871Z,0
2023-02-14T02:31:58.405Z,0
2023-02-14T02:32:57.509Z,0
2023-02-14T02:33:57.543Z,0
2023-02-14T02:34:57.481Z,0
2023-02-14T02:35:57.432Z,0
2023-02-14T02:36:57.383Z,0
2023-02-14T02:37:57.437Z,0
2023-02-14T02:38:57.318Z,0
2023-02-14T02:39:57.300Z,0
2023-02-14T02:40:57.626Z,0
2023-02-14T02:41:57.201Z,0
2023-02-14T02:42:57.170Z,0
2023-02-14T02:43:57.132Z,0
2023-02-14T02:44:57.083Z,0
2023-02-14T02:45:57.363Z,0
2023-02-14T02:46:57.043Z,0
2023-02-14T02:47:57.053Z,0
2023-02-14T02:48:56.964Z,0
2023-02-14T02:49:56.959Z,0
2023-02-14T02:50:56.677Z,0
2023-02-14T02:51:56.851Z,0
2023-02-14T02:52:56.600Z,0
2023-02-14T02:53:56.618Z,0
2023-02-14T02:54:56.768Z,0
2023-02-14T02:55:56.736Z,0
2023-02-14T02:56:56.938Z,0
2023-02-14T02:57:56.642Z,0
2023-02-14T02:58:56.618Z,0
2023-02-14T02:59:56.629Z,0
2023-02-14T03:00:56.688Z,0
2023-02-14T03:01:56.917Z,0
2023-02-14T03:02:56.491Z,0
2023-02-14T03:03:56.520Z,0
2023-02-14T03:04:57.022Z,0
2023-02-14T03:05:56.426Z,0
2023-02-14T03:06:56.403Z,0
2023-02-14T03:07:56.345Z,0
2023-02-14T03:08:56.267Z,0
2023-02-14T03:09:56.322Z,0
2023-02-14T03:10:56.199Z,0
2023-02-14T03:11:56.184Z,0
2023-02-14T03:12:56.153Z,0
2023-02-14T03:13:56.118Z,0
2023-02-14T03:14:56.073Z,0
2023-02-14T03:15:56.158Z,0
2023-02-14T03:16:56.051Z,0
2023-02-14T03:17:56.158Z,0
2023-02-14T03:18:55.997Z,0
2023-02-14T03:19:55.929Z,0
2023-02-14T03:20:56.027Z,0
2023-02-14T03:21:55.993Z,0
2023-02-14T03:22:55.807Z,0
2023-02-14T03:23:55.755Z,0
2023-02-14T03:24:55.738Z,0
2023-02-14T03:25:55.746Z,0
2023-02-14T03:26:55.413Z,0
2023-02-14T03:27:55.650Z,0
2023-02-14T03:28:55.588Z,0
2023-02-14T03:29:55.827Z,0
2023-02-14T03:30:56.103Z,0
2023-02-14T03:31:56.331Z,0
2023-02-14T03:32:55.458Z,0
2023-02-14T03:33:55.416Z,0
2023-02-14T03:34:55.393Z,0
2023-02-14T03:35:55.426Z,0
2023-02-14T03:36:55.304Z,0
2023-02-14T03:37:55.293Z,0
2023-02-14T03:38:55.289Z,0
2023-02-14T03:39:55.226Z,0
2023-02-14T03:40:55.182Z,0
2023-02-14T03:41:55.210Z,0
2023-02-14T03:42:55.129Z,0
2023-02-14T03:43:55.069Z,0
2023-02-14T03:44:55.218Z,0
2023-02-14T03:45:55.122Z,0
2023-02-14T03:46:55.119Z,0
2023-02-14T03:47:54.951Z,0
2023-02-14T03:48:54.965Z,0
2023-02-14T03:49:54.870Z,0
2023-02-14T03:50:54.863Z,0
2023-02-14T03:51:54.839Z,0
2023-02-14T03:52:54.751Z,0
2023-02-14T03:53:54.756Z,0
2023-02-14T03:54:54.773Z,0
2023-02-14T03:55:54.678Z,0
2023-02-14T03:56:54.631Z,0
2023-02-14T03:57:54.638Z,0
2023-02-14T03:58:54.569Z,0
2023-02-14T03:59:54.511Z,0
2023-02-14T04:00:54.488Z,0
2023-02-14T04:01:54.859Z,0
2023-02-14T04:02:54.420Z,0
2023-02-14T04:03:54.818Z,0
2023-02-14T04:04:54.359Z,0
2023-02-14T04:05:54.315Z,0
2023-02-14T04:06:54.296Z,0
2023-02-14T04:07:54.321Z,0
2023-02-14T04:08:54.224Z,0
2023-02-14T04:09:54.262Z,0
2023-02-14T04:10:54.160Z,0
2023-02-14T04:11:54.153Z,0
2023-02-14T04:12:54.128Z,0
2023-02-14T04:13:54.101Z,0
2023-02-14T04:14:54.012Z,0
2023-02-14T04:15:54.433Z,0
2023-02-14T04:16:53.932Z,0
2023-02-14T04:17:53.921Z,0
2023-02-14T04:18:53.866Z,0
2023-02-14T04:19:53.839Z,0
2023-02-14T04:20:53.813Z,0
2023-02-14T04:21:53.767Z,0
2023-02-14T04:22:53.717Z,0
2023-02-14T04:23:53.761Z,0
2023-02-14T04:24:53.654Z,0
2023-02-14T04:25:53.652Z,0
2023-02-14T04:26:53.337Z,0
2023-02-14T04:27:53.559Z,0
2023-02-14T04:28:53.502Z,0
2023-02-14T04:29:53.709Z,0
2023-02-14T04:30:53.508Z,0
2023-02-14T04:31:54.197Z,0
2023-02-14T04:32:53.412Z,0
2023-02-14T04:33:53.345Z,0
2023-02-14T04:34:53.324Z,0
2023-02-14T04:35:53.287Z,0
2023-02-14T04:36:53.237Z,0
2023-02-14T04:37:53.197Z,0
2023-02-14T04:38:53.168Z,0
2023-02-14T04:39:53.325Z,0
2023-02-14T04:40:53.106Z,0
2023-02-14T04:41:53.130Z,0
2023-02-14T04:42:53.116Z,0
2023-02-14T04:43:53.002Z,0
2023-02-14T04:44:52.983Z,0
2023-02-14T04:45:52.987Z,0
2023-02-14T04:46:53.270Z,0
2023-02-14T04:47:52.865Z,0
2023-02-14T04:48:52.828Z,0
2023-02-14T04:49:52.790Z,0
2023-02-14T04:50:52.768Z,0
2023-02-14T04:51:52.725Z,0
2023-02-14T04:52:52.748Z,0
2023-02-14T04:53:52.662Z,0
2023-02-14T04:54:52.624Z,0
2023-02-14T04:55:52.643Z,0
2023-02-14T04:56:52.555Z,0
2023-02-14T04:57:52.293Z,0
2023-02-14T04:58:52.484Z,0
2023-02-14T04:59:52.448Z,0
2023-02-14T05:00:52.749Z,0
2023-02-14T05:01:52.735Z,0
2023-02-14T05:02:52.360Z,0
2023-02-14T05:03:52.484Z,0
2023-02-14T05:04:54.450Z,0
2023-02-14T05:05:52.240Z,0
2023-02-14T05:06:52.219Z,0
2023-02-14T05:07:52.208Z,0
2023-02-14T05:08:52.135Z,0
2023-02-14T05:09:52.110Z,0
2023-02-14T05:10:52.052Z,0
2023-02-14T05:11:52.091Z,0
2023-02-14T05:12:51.976Z,0
2023-02-14T05:13:51.979Z,0
2023-02-14T05:14:51.911Z,0
2023-02-14T05:15:51.897Z,0
2023-02-14T05:16:52.214Z,0
2023-02-14T05:17:51.913Z,0
2023-02-14T05:18:51.779Z,0
2023-02-14T05:19:51.776Z,0
2023-02-14T05:20:51.738Z,0
2023-02-14T05:21:51.691Z,0
2023-02-14T05:22:51.673Z,0
2023-02-14T05:23:51.606Z,0
2023-02-14T05:24:51.596Z,0
2023-02-14T05:25:51.533Z,0
2023-02-14T05:26:51.527Z,0
2023-02-14T05:27:51.608Z,0
2023-02-14T05:28:51.444Z,0
2023-02-14T05:29:51.492Z,0
2023-02-14T05:30:52.078Z,0
2023-02-14T05:31:51.789Z,0
2023-02-14T05:32:51.313Z,0
2023-02-14T05:33:51.326Z,0
2023-02-14T05:34:51.234Z,0
2023-02-14T05:35:51.192Z,0
2023-02-14T05:36:51.186Z,0
2023-02-14T05:37:51.118Z,0
2023-02-14T05:38:51.091Z,0
2023-02-14T05:39:51.040Z,0
2023-02-14T05:40:51.040Z,0
2023-02-14T05:41:50.987Z,0
2023-02-14T05:42:50.965Z,0
2023-02-14T05:43:50.969Z,0
2023-02-14T05:44:50.877Z,0
2023-02-14T05:45:51.231Z,0
2023-02-14T05:46:50.794Z,0
2023-02-14T05:47:50.779Z,0
2023-02-14T05:48:50.724Z,0
2023-02-14T05:49:50.788Z,0
2023-02-14T05:50:50.671Z,0
2023-02-14T05:51:50.640Z,0
2023-02-14T05:52:50.597Z,0
2023-02-14T05:53:50.682Z,0
2023-02-14T05:54:50.550Z,0
2023-02-14T05:55:50.502Z,0
2023-02-14T05:56:50.495Z,0
2023-02-14T05:57:50.436Z,0
2023-02-14T05:58:50.385Z,0
2023-02-14T05:59:50.450Z,0
2023-02-14T06:00:50.973Z,0
2023-02-14T06:01:50.426Z,0
2023-02-14T06:02:50.243Z,0
2023-02-14T06:03:50.240Z,0
2023-02-14T06:04:50.553Z,0
2023-02-14T06:05:50.248Z,0
2023-02-14T06:06:50.166Z,0
2023-02-14T06:07:50.079Z,0
2023-02-14T06:08:50.056Z,0
2023-02-14T06:09:50.032Z,0
2023-02-14T06:10:50.018Z,0
2023-02-14T06:11:50.059Z,0
2023-02-14T06:12:49.892Z,0
2023-02-14T06:13:49.885Z,0
2023-02-14T06:14:49.939Z,0
2023-02-14T06:15:49.858Z,0
2023-02-14T06:16:50.141Z,0
2023-02-14T06:17:49.756Z,0
2023-02-14T06:18:49.685Z,0
2023-02-14T06:19:49.667Z,0
2023-02-14T06:20:49.626Z,0
2023-02-14T06:21:49.624Z,0
2023-02-14T06:22:49.548Z,0
2023-02-14T06:23:49.579Z,0
2023-02-14T06:24:49.499Z,0
2023-02-14T06:25:49.193Z,0
2023-02-14T06:26:49.412Z,0
2023-02-14T06:27:51.623Z,0
2023-02-14T06:28:49.359Z,0
2023-02-14T06:29:49.331Z,0
2023-02-14T06:30:50.351Z,0
2023-02-14T06:31:50.353Z,0
2023-02-14T06:32:49.194Z,0
2023-02-14T06:33:49.199Z,0
2023-02-14T06:34:49.137Z,0
2023-02-14T06:35:48.866Z,5
2023-02-14T06:36:49.069Z,5
2023-02-14T06:37:49.095Z,5
2023-02-14T06:38:48.723Z,5
2023-02-14T06:39:48.939Z,5
2023-02-14T06:40:48.901Z,5
2023-02-14T06:41:48.855Z,10
2023-02-14T06:42:48.890Z,10
2023-02-14T06:43:48.831Z,10
2023-02-14T06:44:48.855Z,10
2023-02-14T06:45:48.854Z,10
2023-02-14T06:46:48.708Z,15
2023-02-14T06:47:48.717Z,15
2023-02-14T06:48:48.431Z,15
2023-02-14T06:49:48.619Z,20
2023-02-14T06:50:48.111Z,20
2023-02-14T06:51:48.526Z,20
2023-02-14T06:52:48.231Z,25
2023-02-14T06:53:48.360Z,25
2023-02-14T06:54:48.451Z,25
2023-02-14T06:55:50.828Z,30
2023-02-14T06:56:48.328Z,30
2023-02-14T06:57:48.105Z,30
2023-02-14T06:58:48.316Z,35
2023-02-14T06:59:48.257Z,35
2023-02-14T07:00:48.222Z,35
2023-02-14T07:01:48.672Z,40
2023-02-14T07:02:48.794Z,40
2023-02-14T07:03:48.174Z,45
2023-02-14T07:04:48.071Z,45
2023-02-14T07:05:48.037Z,45
2023-02-14T07:06:47.995Z,50
2023-02-14T07:07:47.949Z,50
2023-02-14T07:08:47.978Z,50
2023-02-14T07:09:47.976Z,55
2023-02-14T07:10:47.863Z,55
2023-02-14T07:11:47.796Z,60
2023-02-14T07:12:47.790Z,60
2023-02-14T07:13:49.425Z,60
2023-02-14T07:14:47.777Z,65
2023-02-14T07:15:47.979Z,65
2023-02-14T07:16:47.188Z,70
2023-02-14T07:17:47.638Z,70
2023-02-14T07:18:47.593Z,70
2023-02-14T07:19:47.824Z,75
2023-02-14T07:20:47.494Z,75
2023-02-14T07:21:47.241Z,75
2023-02-14T07:22:47.712Z,80
2023-02-14T07:23:47.427Z,80
2023-02-14T07:24:47.359Z,80
2023-02-14T07:25:47.383Z,85
2023-02-14T07:26:47.280Z,85
2023-02-14T07:27:47.266Z,85
2023-02-14T07:28:49.809Z,90
2023-02-14T07:29:47.212Z,90
2023-02-14T07:30:47.621Z,90
2023-02-14T07:31:48.054Z,95
2023-02-14T07:32:47.099Z,95
2023-02-14T07:33:47.052Z,95
2023-02-14T07:34:46.994Z,95
2023-02-14T07:35:47.023Z,100
2023-02-14T07:36:46.967Z,100
2023-02-14T07:37:46.737Z,100
2023-02-14T07:38:46.910Z,105
2023-02-14T07:39:46.816Z,105
2023-02-14T07:40:46.807Z,105
2023-02-14T07:41:46.858Z,105
2023-02-14T07:42:46.718Z,110
2023-02-14T07:43:46.870Z,110
2023-02-14T07:44:46.873Z,110
2023-02-14T07:45:46.810Z,110
2023-02-14T07:46:47.020Z,115
2023-02-14T07:47:46.554Z,115
2023-02-14T07:48:46.509Z,115
2023-02-14T07:49:46.511Z,115
2023-02-14T07:50:46.498Z,115
2023-02-14T07:51:46.556Z,120
2023-02-14T07:52:46.432Z,120
2023-02-14T07:53:46.416Z,120
2023-02-14T07:54:46.351Z,120
2023-02-14T07:55:46.314Z,120
2023-02-14T07:56:46.254Z,125
2023-02-14T07:57:46.261Z,125
2023-02-14T07:58:46.165Z,125
2023-02-14T07:59:46.200Z,125
2023-02-14T08:00:46.088Z,130
2023-02-14T08:01:46.572Z,130
2023-02-14T08:02:46.031Z,130
2023-02-14T08:03:45.983Z,130
2023-02-14T08:04:46.145Z,130
2023-02-14T08:05:45.800Z,135
2023-02-14T08:06:45.895Z,135
2023-02-14T08:07:45.920Z,135
2023-02-14T08:08:45.843Z,135
2023-02-14T08:09:45.841Z,135
2023-02-14T08:10:45.765Z,140
2023-02-14T08:11:45.771Z,140
2023-02-14T08:12:45.718Z,140
2023-02-14T08:13:45.723Z,140
2023-02-14T08:14:45.615Z,140
2023-02-14T08:15:45.584Z,140
2023-02-14T08:16:45.728Z,140
2023-02-14T08:17:46.165Z,145
2023-02-14T08:18:45.344Z,145
2023-02-14T08:19:45.448Z,145
2023-02-14T08:20:45.410Z,145
2023-02-14T08:21:45.409Z,145
2023-02-14T08:22:45.335Z,145
2023-02-14T08:23:47.483Z,145
2023-02-14T08:24:45.266Z,150
2023-02-14T08:25:45.047Z,150
2023-02-14T08:26:45.181Z,150
2023-02-14T08:27:45.155Z,150
2023-02-14T08:28:45.134Z,150
2023-02-14T08:29:45.147Z,150
2023-02-14T08:30:44.811Z,155
2023-02-14T08:31:46.625Z,155
2023-02-14T08:32:45.675Z,155
2023-02-14T08:33:44.732Z,155
2023-02-14T08:34:44.922Z,155
2023-02-14T08:35:45.347Z,155
2023-02-14T08:36:44.839Z,155
2023-02-14T08:37:44.814Z,155
2023-02-14T08:38:44.824Z,160
2023-02-14T08:39:44.807Z,160
2023-02-14T08:40:44.793Z,160
2023-02-14T08:41:44.778Z,160
2023-02-14T08:42:44.445Z,160
2023-02-14T08:43:44.726Z,160
2023-02-14T08:44:44.582Z,160
2023-02-14T08:45:44.899Z,160
2023-02-14T08:46:45.017Z,160
2023-02-14T08:47:44.273Z,165
2023-02-14T08:48:46.883Z,165
2023-02-14T08:49:44.467Z,165
2023-02-14T08:50:44.465Z,165
2023-02-14T08:51:44.364Z,165
2023-02-14T08:52:44.436Z,165
2023-02-14T08:53:44.360Z,165
2023-02-14T08:54:44.298Z,165
2023-02-14T08:55:44.392Z,165
2023-02-14T08:56:44.254Z,165
2023-02-14T08:57:44.270Z,170
2023-02-14T08:58:44.194Z,170
2023-02-14T08:59:44.133Z,170
2023-02-14T09:00:44.503Z,170
2023-02-14T09:01:44.120Z,170
2023-02-14T09:02:44.351Z,170
2023-02-14T09:03:46.564Z,170
2023-02-14T09:04:43.966Z,170
2023-02-14T09:05:43.742Z,170
2023-02-14T09:06:43.628Z,170
2023-02-14T09:07:43.869Z,175
2023-02-14T09:08:43.866Z,175
2023-02-14T09:09:43.610Z,175
2023-02-14T09:10:43.876Z,175
2023-02-14T09:11:43.928Z,175
2023-02-14T09:12:43.667Z,175
2023-02-14T09:13:43.430Z,175
2023-02-14T09:14:43.387Z,175
2023-02-14T09:15:43.664Z,175
2023-02-14T09:16:43.965Z,175
2023-02-14T09:17:43.765Z,175
2023-02-14T09:18:43.578Z,175
2023-02-14T09:19:43.479Z,180
2023-02-14T09:20:43.204Z,180
2023-02-14T09:21:43.371Z,180
2023-02-14T09:22:43.508Z,180
2023-02-14T09:23:43.054Z,180
2023-02-14T09:24:43.265Z,180
2023-02-14T09:25:43.194Z,180
2023-02-14T09:26:43.269Z,180
2023-02-14T09:27:42.966Z,180
2023-02-14T09:28:43.122Z,180
2023-02-14T09:29:43.144Z,180
2023-02-14T09:30:43.233Z,180
2023-02-14T09:31:43.773Z,185
2023-02-14T09:32:42.880Z,185
2023-02-14T09:33:43.033Z,185
2023-02-14T09:34:42.941Z,185
2023-02-14T09:35:42.892Z,185
2023-02-14T09:36:42.904Z,185
2023-02-14T09:37:42.836Z,185
2023-02-14T09:38:42.814Z,185
2023-02-14T09:39:42.746Z,185
2023-02-14T09:40:42.723Z,185
2023-02-14T09:41:42.196Z,185
2023-02-14T09:42:42.502Z,185
2023-02-14T09:43:42.778Z,185
2023-02-14T09:44:42.693Z,185
2023-02-14T09:45:43.030Z,190
2023-02-14T09:46:42.060Z,190
2023-02-14T09:47:42.508Z,190
2023-02-14T09:48:42.466Z,190
2023-02-14T09:49:43.419Z,190
2023-02-14T09:50:42.207Z,190
2023-02-14T09:51:42.472Z,190
2023-02-14T09:52:42.357Z,190
2023-02-14T09:53:42.372Z,190
2023-02-14T09:54:42.319Z,190
2023-02-14T09:55:42.274Z,190
2023-02-14T09:56:59.245Z,190
2023-02-14T09:57:42.186Z,195
2023-02-14T09:58:42.159Z,195
2023-02-14T09:59:42.223Z,195
2023-02-14T10:00:41.988Z,195
2023-02-14T10:01:42.384Z,195
2023-02-14T10:02:42.238Z,195
2023-02-14T10:03:41.986Z,195
2023-02-14T10:04:44.416Z,195
2023-02-14T10:05:41.724Z,195
2023-02-14T10:06:41.882Z,195
2023-02-14T10:07:41.834Z,195
2023-02-14T10:08:41.816Z,195
2023-02-14T10:09:41.573Z,195
2023-02-14T10:10:44.267Z,195
2023-02-14T10:11:41.740Z,195
2023-02-14T10:12:41.697Z,195
2023-02-14T10:13:41.437Z,195
2023-02-14T10:14:41.662Z,195
2023-02-14T10:15:41.451Z,195
2023-02-14T10:16:41.895Z,195
2023-02-14T10:17:41.587Z,195
2023-02-14T10:18:41.513Z,195
2023-02-14T10:19:41.492Z,195
2023-02-14T10:20:41.190Z,195
2023-02-14T10:21:41.502Z,195
2023-02-14T10:22:41.383Z,195
2023-02-14T10:23:41.402Z,195
2023-02-14T10:24:41.110Z,195
2023-02-14T10:25:41.297Z,195
2023-02-14T10:26:41.285Z,195
2023-02-14T10:27:41.361Z,195
2023-02-14T10:28:41.252Z,195
2023-02-14T10:29:40.922Z,195
2023-02-14T10:30:41.987Z,195
2023-02-14T10:31:41.634Z,200
2023-02-14T10:32:41.097Z,200
2023-02-14T10:33:41.054Z,200
2023-02-14T10:34:41.043Z,200
2023-02-14T10:35:41.007Z,200
2023-02-14T10:36:40.947Z,200
2023-02-14T10:37:40.920Z,200
2023-02-14T10:38:40.646Z,200
2023-02-14T10:39:40.854Z,200
2023-02-14T10:40:40.820Z,200
2023-02-14T10:41:40.901Z,200
2023-02-14T10:42:40.780Z,200
2023-02-14T10:43:40.873Z,200
2023-02-14T10:44:40.719Z,200
2023-02-14T10:45:40.863Z,200
2023-02-14T10:46:40.700Z,200
2023-02-14T10:47:40.615Z,200
2023-02-14T10:48:40.584Z,200
2023-02-14T10:49:40.553Z,200
2023-02-14T10:50:40.542Z,200
2023-02-14T10:51:43.291Z,200
2023-02-14T10:52:40.254Z,200
2023-02-14T10:53:40.453Z,200
2023-02-14T10:54:40.421Z,200
2023-02-14T10:55:42.242Z,200
2023-02-14T10:56:40.337Z,205
2023-02-14T10:57:40.321Z,205
2023-02-14T10:58:40.320Z,205
2023-02-14T10:59:40.382Z,205
2023-02-14T11:00:40.242Z,205
2023-02-14T11:01:40.523Z,205
2023-02-14T11:02:40.223Z,205
2023-02-14T11:03:42.820Z,205
2023-02-14T11:04:40.111Z,205
2023-02-14T11:05:40.076Z,205
2023-02-14T11:06:40.080Z,205
2023-02-14T11:07:40.102Z,205
2023-02-14T11:08:40.065Z,205
2023-02-14T11:09:39.976Z,205
2023-02-14T11:10:39.978Z,205
2023-02-14T11:11:39.913Z,205
2023-02-14T11:12:39.640Z,205
2023-02-14T11:13:39.861Z,205
2023-02-14T11:14:39.449Z,205
2023-02-14T11:15:39.907Z,205
2023-02-14T11:16:40.112Z,205
2023-02-14T11:17:39.722Z,205
2023-02-14T11:18:39.728Z,205
2023-02-14T11:19:42.145Z,205
2023-02-14T11:20:39.748Z,205
2023-02-14T11:21:39.614Z,205
2023-02-14T11:22:39.584Z,205
2023-02-14T11:23:39.555Z,210
2023-02-14T11:24:39.569Z,210
2023-02-14T11:25:39.489Z,210
2023-02-14T11:26:39.478Z,210
2023-02-14T11:27:42.667Z,210
2023-02-14T11:28:41.824Z,210
2023-02-14T11:29:39.390Z,210
2023-02-14T11:30:39.703Z,210
2023-02-14T11:31:40.374Z,210
2023-02-14T11:32:39.044Z,210
2023-02-14T11:33:39.270Z,210
2023-02-14T11:34:38.978Z,210
2023-02-14T11:35:39.143Z,210
2023-02-14T11:36:39.171Z,210
2023-02-14T11:37:39.144Z,210
2023-02-14T11:38:38.879Z,210
2023-02-14T11:39:39.092Z,210
2023-02-14T11:40:39.065Z,210
2023-02-14T11:41:39.021Z,210
2023-02-14T11:42:39.007Z,210
2023-02-14T11:43:38.991Z,210
2023-02-14T11:44:38.943Z,210
2023-02-14T11:45:38.919Z,210
2023-02-14T11:46:56.968Z,210
2023-02-14T11:47:38.899Z,210
2023-02-14T11:48:47.992Z,210
2023-02-14T11:49:39.232Z,210
2023-02-14T11:50:38.789Z,210
2023-02-14T11:51:38.780Z,210
2023-02-14T11:52:38.719Z,210
2023-02-14T11:53:38.694Z,210
2023-02-14T11:54:38.660Z,210
2023-02-14T11:55:38.693Z,210
2023-02-14T11:56:38.593Z,210
2023-02-14T11:57:39.911Z,210
2023-02-14T11:58:38.561Z,210
2023-02-14T11:59:38.502Z,210
2023-02-14T12:00:38.562Z,210
2023-02-14T12:01:38.464Z,210
2023-02-14T12:02:38.809Z,210
2023-02-14T12:03:41.078Z,210
2023-02-14T12:04:51.505Z,210
2023-02-14T12:05:38.390Z,210
2023-02-14T12:06:38.352Z,210
2023-02-14T12:07:38.339Z,210
2023-02-14T12:08:38.024Z,220
2023-02-14T12:09:38.226Z,215
2023-02-14T12:10:38.234Z,215
2023-02-14T12:11:38.172Z,215
2023-02-14T12:12:38.137Z,215
2023-02-14T12:13:38.127Z,215
2023-02-14T12:14:38.099Z,215
2023-02-14T12:15:38.280Z,215
2023-02-14T12:16:38.025Z,215
2023-02-14T12:17:38.009Z,215
2023-02-14T12:18:38.080Z,215
2023-02-14T12:19:37.994Z,215
2023-02-14T12:20:37.908Z,220
2023-02-14T12:21:37.915Z,215
2023-02-14T12:22:38.062Z,215
2023-02-14T12:23:37.835Z,215
2023-02-14T12:24:38.256Z,215
2023-02-14T12:25:37.839Z,215
2023-02-14T12:26:37.769Z,215
2023-02-14T12:27:40.272Z,215
2023-02-14T12:28:37.742Z,215
2023-02-14T12:29:37.691Z,215
2023-02-14T12:30:37.595Z,215
2023-02-14T12:31:38.239Z,215
2023-02-14T12:32:37.654Z,215
2023-02-14T12:33:37.553Z,215
2023-02-14T12:34:37.598Z,215
2023-02-14T12:35:37.567Z,215
2023-02-14T12:36:37.457Z,215
2023-02-14T12:37:37.217Z,215
2023-02-14T12:38:37.422Z,215
2023-02-14T12:39:37.450Z,215
2023-02-14T12:40:37.372Z,215
2023-02-14T12:41:37.323Z,215
2023-02-14T12:42:37.317Z,215
2023-02-14T12:43:37.283Z,215
2023-02-14T12:44:37.127Z,215
2023-02-14T12:45:37.239Z,215
2023-02-14T12:46:38.044Z,215
2023-02-14T12:47:36.975Z,215
2023-02-14T12:48:36.887Z,215
2023-02-14T12:49:36.868Z,215
2023-02-14T12:50:37.180Z,215
2023-02-14T12:51:37.110Z,215
2023-02-14T12:52:37.031Z,215
2023-02-14T12:53:37.021Z,215
2023-02-14T12:54:36.991Z,215
2023-02-14T12:55:36.941Z,215
2023-02-14T12:56:36.940Z,215
2023-02-14T12:57:36.906Z,215
2023-02-14T12:58:36.904Z,215
2023-02-14T12:59:36.885Z,215
2023-02-14T13:00:36.817Z,215
2023-02-14T13:01:47.660Z,215
2023-02-14T13:02:37.544Z,215
2023-02-14T13:03:36.755Z,215
2023-02-14T13:04:36.739Z,215
2023-02-14T13:05:36.689Z,215
2023-02-14T13:06:36.771Z,215
2023-02-14T13:07:36.656Z,215
2023-02-14T13:08:36.650Z,215
2023-02-14T13:09:37.333Z,215
2023-02-14T13:10:37.447Z,215
2023-02-14T13:11:37.257Z,215
2023-02-14T13:12:37.451Z,215
2023-02-14T13:13:36.980Z,215
2023-02-14T13:14:36.658Z,215
2023-02-14T13:15:36.795Z,215
2023-02-14T13:16:37.925Z,215
2023-02-14T13:17:36.897Z,215
2023-02-14T13:18:36.879Z,215
2023-02-14T13:19:36.041Z,215
2023-02-14T13:20:36.835Z,215
2023-02-14T13:21:36.591Z,215
2023-02-14T13:22:37.029Z,220
2023-02-14T13:23:37.456Z,215
2023-02-14T13:24:36.856Z,210
2023-02-14T13:25:36.676Z,210
2023-02-14T13:26:37.358Z,210
2023-02-14T13:27:35.837Z,210
2023-02-14T13:28:36.727Z,210
2023-02-14T13:29:36.039Z,210
2023-02-14T13:30:36.403Z,210
2023-02-14T13:31:37.612Z,210
2023-02-14T13:32:36.362Z,210
2023-02-14T13:33:39.611Z,210
2023-02-14T13:34:36.548Z,210
2023-02-14T13:35:36.134Z,210
2023-02-14T13:36:36.003Z,210
2023-02-14T13:37:35.593Z,210
2023-02-14T13:38:36.765Z,210
2023-02-14T13:39:43.383Z,210
2023-02-14T13:40:36.205Z,210
2023-02-14T13:41:36.046Z,210
2023-02-14T13:42:35.935Z,210
2023-02-14T13:43:36.331Z,210
2023-02-14T13:44:35.596Z,210
2023-02-14T13:45:35.421Z,215
2023-02-14T13:46:35.493Z,210
2023-02-14T13:47:35.527Z,215
2023-02-14T13:48:38.940Z,210
2023-02-14T13:49:36.414Z,210
2023-02-14T13:50:35.996Z,205
2023-02-14T13:51:35.405Z,205
2023-02-14T13:52:35.467Z,205
2023-02-14T13:53:35.381Z,205
2023-02-14T13:54:35.930Z,205
2023-02-14T13:55:35.512Z,205
2023-02-14T13:56:35.849Z,205
2023-02-14T13:57:35.288Z,205
2023-02-14T13:58:35.658Z,205
2023-02-14T13:59:35.062Z,205
2023-02-14T14:00:35.331Z,205
2023-02-14T14:01:35.160Z,205
2023-02-14T14:02:38.877Z,205
2023-02-14T14:03:35.131Z,205
2023-02-14T14:04:35.244Z,205
2023-02-14T14:05:35.087Z,205
2023-02-14T14:06:34.766Z,200
2023-02-14T14:07:34.992Z,200
2023-02-14T14:08:37.599Z,200
2023-02-14T14:09:34.961Z,200
2023-02-14T14:10:35.056Z,200
2023-02-14T14:11:34.954Z,200
2023-02-14T14:12:35.054Z,200
2023-02-14T14:13:34.828Z,200
2023-02-14T14:14:34.577Z,200